createdAt,value
2022-10-07T00:01:19.341Z,17.42
2022-10-07T00:03:53.084Z,17.17
2022-10-07T00:06:27.325Z,17.16
2022-10-07T00:09:01.907Z,17.12
2022-10-07T00:11:35.786Z,16.93
2022-10-07T00:14:11.930Z,17.08
2022-10-07T00:16:45.966Z,17.09
2022-10-07T00:19:19.527Z,17.01
2022-10-07T00:21:53.234Z,17.12
2022-10-07T00:24:27.046Z,17.24
2022-10-07T00:27:00.848Z,17.22
2022-10-07T00:29:35.755Z,17.18
2022-10-07T00:32:09.508Z,17.15
2022-10-07T00:34:43.233Z,17.12
2022-10-07T00:37:16.106Z,17.24
2022-10-07T00:39:49.807Z,17.25
2022-10-07T00:42:23.666Z,17.13
2022-10-07T00:44:58.728Z,17.00
2022-10-07T00:47:35.242Z,17.00
2022-10-07T00:50:12.795Z,17.09
2022-10-07T00:52:50.535Z,17.10
2022-10-07T00:55:27.844Z,17.01
2022-10-07T00:58:06.837Z,17.08
2022-10-07T01:00:42.767Z,17.11
2022-10-07T01:03:17.043Z,16.96
2022-10-07T01:05:50.896Z,16.98
2022-10-07T01:08:26.009Z,16.99
2022-10-07T01:11:14.263Z,17.08
2022-10-07T01:14:00.642Z,17.45
2022-10-07T01:16:47.466Z,17.24
2022-10-07T01:19:44.782Z,16.80
2022-10-07T01:22:31.738Z,16.95
2022-10-07T01:25:23.756Z,16.76
2022-10-07T01:28:04.575Z,16.89
2022-10-07T01:30:41.842Z,16.90
2022-10-07T01:33:19.227Z,16.90
2022-10-07T01:35:54.309Z,16.96
2022-10-07T01:38:29.473Z,16.78
2022-10-07T01:41:06.716Z,16.84
2022-10-07T01:43:43.098Z,16.82
2022-10-07T01:46:22.270Z,16.97
2022-10-07T01:48:55.444Z,16.79
2022-10-07T01:51:33.148Z,16.71
2022-10-07T01:54:22.007Z,16.79
2022-10-07T01:57:06.690Z,16.69
2022-10-07T02:00:03.935Z,16.78
2022-10-07T02:02:56.961Z,16.69
2022-10-07T02:05:44.570Z,16.94
2022-10-07T02:08:31.319Z,16.74
2022-10-07T02:11:15.100Z,16.79
2022-10-07T02:13:59.368Z,16.77
2022-10-07T02:16:39.196Z,16.91
2022-10-07T02:19:17.128Z,16.80
2022-10-07T02:21:53.724Z,16.94
2022-10-07T02:24:31.352Z,16.91
2022-10-07T02:27:10.233Z,16.67
2022-10-07T02:29:45.931Z,16.65
2022-10-07T02:34:47.038Z,16.83
2022-10-07T02:37:25.520Z,16.74
2022-10-07T02:40:00.122Z,16.62
2022-10-07T02:42:41.537Z,16.54
2022-10-07T02:45:26.663Z,16.59
2022-10-07T02:48:05.301Z,16.69
2022-10-07T02:50:43.290Z,16.73
2022-10-07T02:53:18.588Z,16.52
2022-10-07T02:55:55.285Z,16.59
2022-10-07T02:58:28.980Z,16.70
2022-10-07T03:01:04.707Z,16.67
2022-10-07T03:03:38.605Z,16.69
2022-10-07T03:06:16.313Z,16.57
2022-10-07T03:08:50.424Z,16.56
2022-10-07T03:11:24.025Z,16.65
2022-10-07T03:13:58.709Z,16.65
2022-10-07T03:16:31.685Z,16.69
2022-10-07T03:19:05.626Z,16.73
2022-10-07T03:21:41.638Z,16.66
2022-10-07T03:24:15.321Z,16.68
2022-10-07T03:26:49.147Z,16.61
2022-10-07T03:29:22.983Z,16.65
2022-10-07T03:31:56.017Z,16.59
2022-10-07T03:34:30.644Z,16.47
2022-10-07T03:37:06.064Z,16.64
2022-10-07T03:39:39.618Z,16.46
2022-10-07T03:42:16.573Z,16.67
2022-10-07T03:44:50.126Z,16.78
2022-10-07T03:47:24.030Z,16.80
2022-10-07T03:49:58.290Z,16.59
2022-10-07T03:52:34.002Z,16.71
2022-10-07T03:55:09.031Z,16.77
2022-10-07T03:57:55.623Z,16.68
2022-10-07T04:00:33.089Z,16.70
2022-10-07T04:03:08.061Z,16.72
2022-10-07T04:05:41.941Z,16.82
2022-10-07T04:08:18.356Z,16.98
2022-10-07T04:10:52.096Z,16.92
2022-10-07T04:13:26.482Z,16.80
2022-10-07T04:16:00.210Z,16.90
2022-10-07T04:18:33.959Z,16.81
2022-10-07T04:21:07.690Z,16.83
2022-10-07T04:23:43.734Z,16.96
2022-10-07T04:26:17.480Z,16.92
2022-10-07T04:28:51.847Z,16.73
2022-10-07T04:31:26.040Z,16.80
2022-10-07T04:33:59.863Z,16.90
2022-10-07T04:36:33.411Z,16.76
2022-10-07T04:39:08.808Z,16.99
2022-10-07T04:41:43.228Z,16.94
2022-10-07T04:44:17.179Z,16.96
2022-10-07T04:46:52.227Z,16.75
2022-10-07T04:49:26.527Z,16.89
2022-10-07T04:52:00.101Z,17.08
2022-10-07T04:54:35.466Z,17.04
2022-10-07T04:57:10.410Z,17.15
2022-10-07T04:59:44.177Z,17.00
2022-10-07T05:02:17.764Z,17.01
2022-10-07T05:04:51.880Z,16.99
2022-10-07T05:07:26.100Z,17.00
2022-10-07T05:10:01.340Z,16.88
2022-10-07T05:12:35.025Z,16.65
2022-10-07T05:15:09.354Z,16.95
2022-10-07T05:17:43.194Z,16.73
2022-10-07T05:20:17.145Z,16.44
2022-10-07T05:22:50.866Z,16.67
2022-10-07T05:25:26.136Z,16.66
2022-10-07T05:27:59.760Z,16.87
2022-10-07T05:30:34.037Z,16.67
2022-10-07T05:33:08.105Z,16.76
2022-10-07T05:35:47.291Z,16.87
2022-10-07T05:38:20.888Z,16.46
2022-10-07T05:41:01.070Z,16.47
2022-10-07T05:43:38.283Z,16.70
2022-10-07T05:46:14.594Z,16.53
2022-10-07T05:48:49.605Z,16.47
2022-10-07T05:51:23.813Z,16.46
2022-10-07T05:53:58.217Z,16.58
2022-10-07T05:56:33.701Z,16.38
2022-10-07T05:59:07.591Z,16.48
2022-10-07T06:01:43.351Z,16.50
2022-10-07T06:04:16.149Z,16.45
2022-10-07T06:06:50.021Z,16.64
2022-10-07T06:09:40.523Z,16.67
2022-10-07T06:12:32.203Z,16.64
2022-10-07T06:15:06.675Z,16.70
2022-10-07T06:17:44.091Z,16.71
2022-10-07T06:20:18.357Z,16.61
2022-10-07T06:22:54.698Z,16.72
2022-10-07T06:25:27.652Z,16.70
2022-10-07T06:28:03.685Z,16.63
2022-10-07T06:30:38.807Z,16.89
2022-10-07T06:33:11.647Z,16.87
2022-10-07T06:35:45.967Z,16.60
2022-10-07T06:38:21.944Z,16.73
2022-10-07T06:40:59.426Z,16.63
2022-10-07T06:43:35.998Z,16.74
2022-10-07T06:46:14.088Z,16.89
2022-10-07T06:48:48.569Z,16.89
2022-10-07T06:51:23.287Z,16.98
2022-10-07T06:53:58.349Z,17.12
2022-10-07T06:56:32.730Z,17.02
2022-10-07T06:59:08.071Z,17.02
2022-10-07T07:01:41.795Z,17.18
2022-10-07T07:04:21.661Z,17.27
2022-10-07T07:06:55.207Z,17.17
2022-10-07T07:09:28.851Z,17.29
2022-10-07T07:12:02.523Z,17.10
2022-10-07T07:14:37.927Z,17.26
2022-10-07T07:17:10.763Z,17.33
2022-10-07T07:19:44.880Z,17.38
2022-10-07T07:22:18.639Z,17.56
2022-10-07T07:24:51.490Z,17.50
2022-10-07T07:27:25.677Z,17.22
2022-10-07T07:30:01.585Z,17.45
2022-10-07T07:32:35.215Z,17.63
2022-10-07T07:35:09.892Z,17.83
2022-10-07T07:37:43.765Z,18.47
2022-10-07T07:40:17.244Z,18.79
2022-10-07T07:42:51.171Z,18.65
2022-10-07T07:45:26.324Z,18.63
2022-10-07T07:47:59.931Z,18.76
2022-10-07T07:50:34.049Z,18.55
2022-10-07T07:53:07.733Z,18.82
2022-10-07T07:55:41.648Z,18.44
2022-10-07T07:58:14.659Z,18.26
2022-10-07T08:00:59.355Z,18.53
2022-10-07T08:03:33.401Z,18.70
2022-10-07T08:06:08.817Z,18.88
2022-10-07T08:08:43.125Z,18.94
2022-10-07T08:11:17.797Z,18.88
2022-10-07T08:13:51.611Z,18.82
2022-10-07T08:16:28.746Z,18.75
2022-10-07T08:19:01.685Z,18.78
2022-10-07T08:21:35.602Z,18.88
2022-10-07T08:24:09.900Z,19.15
2022-10-07T08:26:42.831Z,18.95
2022-10-07T08:29:16.939Z,18.91
2022-10-07T08:31:52.252Z,19.03
2022-10-07T08:34:27.427Z,19.15
2022-10-07T08:37:01.475Z,19.07
2022-10-07T08:39:34.289Z,18.68
2022-10-07T08:42:15.655Z,18.75
2022-10-07T08:44:51.399Z,18.72
2022-10-07T08:47:35.106Z,18.61
2022-10-07T08:50:19.173Z,18.71
2022-10-07T08:52:58.548Z,18.64
2022-10-07T08:55:38.052Z,18.62
2022-10-07T08:58:41.094Z,18.55
2022-10-07T09:01:25.429Z,18.52
2022-10-07T09:04:11.124Z,18.25
2022-10-07T09:06:47.307Z,18.23
2022-10-07T09:09:25.133Z,18.17
2022-10-07T09:12:00.708Z,18.35
2022-10-07T09:14:39.833Z,18.33
2022-10-07T09:17:19.364Z,18.30
2022-10-07T09:19:59.236Z,18.30
2022-10-07T09:22:36.453Z,18.28
2022-10-07T09:25:21.906Z,18.34
2022-10-07T09:27:56.350Z,18.29
2022-10-07T09:30:30.433Z,18.40
2022-10-07T09:33:04.854Z,18.57
2022-10-07T09:35:39.342Z,18.63
2022-10-07T09:38:12.161Z,18.36
2022-10-07T09:41:02.871Z,18.31
2022-10-07T09:43:36.431Z,18.25
2022-10-07T09:46:32.208Z,18.27
2022-10-07T09:49:07.281Z,18.42
2022-10-07T09:51:42.650Z,18.15
2022-10-07T09:54:22.349Z,18.08
2022-10-07T09:56:57.912Z,18.27
2022-10-07T09:59:32.378Z,18.34
2022-10-07T10:02:22.045Z,18.47
2022-10-07T10:04:58.203Z,18.72
2022-10-07T10:07:36.709Z,18.53
2022-10-07T10:10:19.275Z,18.44
2022-10-07T10:12:56.178Z,18.46
2022-10-07T10:15:39.994Z,18.44
2022-10-07T10:18:36.896Z,18.48
2022-10-07T10:21:30.223Z,18.19
2022-10-07T10:24:07.378Z,18.25
2022-10-07T10:26:56.606Z,18.28
2022-10-07T10:29:48.942Z,18.12
2022-10-07T10:33:11.087Z,18.33
2022-10-07T10:35:52.923Z,18.01
2022-10-07T10:38:34.380Z,17.91
2022-10-07T10:41:19.967Z,17.95
2022-10-07T10:44:14.629Z,17.83
2022-10-07T10:46:58.636Z,18.04
2022-10-07T10:49:39.321Z,18.31
2022-10-07T10:52:32.275Z,18.45
2022-10-07T10:55:32.395Z,18.15
2022-10-07T10:58:24.618Z,18.01
2022-10-07T11:01:08.694Z,17.90
2022-10-07T11:04:05.978Z,17.77
2022-10-07T11:06:43.709Z,17.52
2022-10-07T11:09:21.519Z,17.51
2022-10-07T11:11:55.493Z,17.50
2022-10-07T11:14:32.742Z,17.65
2022-10-07T11:17:08.901Z,17.78
2022-10-07T11:19:50.478Z,17.81
2022-10-07T11:22:33.681Z,17.66
2022-10-07T11:25:19.374Z,17.50
2022-10-07T11:27:55.475Z,17.49
2022-10-07T11:30:37.439Z,17.36
2022-10-07T11:33:17.410Z,17.28
2022-10-07T11:35:55.312Z,17.21
2022-10-07T11:38:33.907Z,17.11
2022-10-07T11:41:16.821Z,17.16
2022-10-07T11:43:53.257Z,16.97
2022-10-07T11:46:30.556Z,16.98
2022-10-07T11:49:07.153Z,16.77
2022-10-07T11:51:52.223Z,16.73
2022-10-07T11:54:30.116Z,16.71
2022-10-07T11:57:04.462Z,16.61
2022-10-07T11:59:45.743Z,16.56
2022-10-07T12:02:45.930Z,16.60
2022-10-07T12:06:05.475Z,16.54
2022-10-07T12:08:40.612Z,16.52
2022-10-07T12:11:49.685Z,16.41
2022-10-07T12:14:59.657Z,16.56
2022-10-07T12:17:33.254Z,16.68
2022-10-07T12:20:47.052Z,16.70
2022-10-07T12:23:50.040Z,16.93
2022-10-07T12:26:50.455Z,16.96
2022-10-07T12:29:32.981Z,17.12
2022-10-07T12:32:44.082Z,16.88
2022-10-07T12:35:53.071Z,16.77
2022-10-07T12:38:29.578Z,16.61
2022-10-07T12:41:21.437Z,15.80
2022-10-07T12:44:01.216Z,16.10
2022-10-07T12:46:40.503Z,16.07
2022-10-07T12:49:21.978Z,16.10
2022-10-07T12:51:59.433Z,15.81
2022-10-07T12:54:38.148Z,15.85
2022-10-07T12:57:15.086Z,16.32
2022-10-07T12:59:58.122Z,16.49
2022-10-07T13:03:17.292Z,16.77
2022-10-07T13:06:40.523Z,16.88
2022-10-07T13:09:52.614Z,16.90
2022-10-07T13:12:37.488Z,17.05
2022-10-07T13:15:19.883Z,17.00
2022-10-07T13:17:59.963Z,17.10
2022-10-07T13:20:48.843Z,17.24
2022-10-07T13:23:27.282Z,17.39
2022-10-07T13:26:03.147Z,17.50
2022-10-07T13:28:46.476Z,17.38
2022-10-07T13:31:23.643Z,17.44
2022-10-07T13:33:58.444Z,17.33
2022-10-07T13:36:32.967Z,17.42
2022-10-07T13:39:13.629Z,17.50
2022-10-07T13:41:50.252Z,17.70
2022-10-07T13:44:28.161Z,17.87
2022-10-07T13:47:03.715Z,17.99
2022-10-07T13:49:43.755Z,17.87
2022-10-07T13:52:22.983Z,17.91
2022-10-07T13:54:56.692Z,17.89
2022-10-07T13:57:32.517Z,17.61
2022-10-07T14:00:06.144Z,17.38
2022-10-07T14:02:41.068Z,17.56
2022-10-07T14:05:21.604Z,17.42
2022-10-07T14:07:56.140Z,17.32
2022-10-07T14:10:31.900Z,17.08
2022-10-07T14:13:09.983Z,17.29
2022-10-07T14:15:53.345Z,17.44
2022-10-07T14:18:27.578Z,17.50
2022-10-07T14:21:10.523Z,17.72
2022-10-07T14:23:46.791Z,17.96
2022-10-07T14:26:19.841Z,17.90
2022-10-07T14:28:54.806Z,17.83
2022-10-07T14:31:45.766Z,17.80
2022-10-07T14:34:37.814Z,17.74
2022-10-07T14:37:12.424Z,17.54
2022-10-07T14:39:48.118Z,17.49
2022-10-07T14:42:25.678Z,17.36
2022-10-07T14:45:02.965Z,17.30
2022-10-07T14:47:36.765Z,17.22
2022-10-07T14:50:10.272Z,17.41
2022-10-07T14:52:47.287Z,17.49
2022-10-07T14:55:25.229Z,16.76
2022-10-07T14:57:58.897Z,16.00
2022-10-07T15:00:39.345Z,15.20
2022-10-07T15:03:14.169Z,14.52
2022-10-07T15:05:49.072Z,14.24
2022-10-07T15:08:22.325Z,13.98
2022-10-07T15:10:55.161Z,14.11
2022-10-07T15:13:28.462Z,14.17
2022-10-07T15:16:03.535Z,14.33
2022-10-07T15:18:39.898Z,14.13
2022-10-07T15:21:17.025Z,14.05
2022-10-07T15:23:53.626Z,14.51
2022-10-07T15:26:26.513Z,14.78
2022-10-07T15:29:01.078Z,14.85
2022-10-07T15:31:36.332Z,14.92
2022-10-07T15:34:09.358Z,15.03
2022-10-07T15:36:43.525Z,15.31
2022-10-07T15:39:17.014Z,15.55
2022-10-07T15:41:50.591Z,15.79
2022-10-07T15:44:23.565Z,15.66
2022-10-07T15:46:58.951Z,15.56
2022-10-07T15:49:32.263Z,15.50
2022-10-07T15:52:05.201Z,15.64
2022-10-07T15:54:38.072Z,15.69
2022-10-07T15:57:10.984Z,15.84
2022-10-07T15:59:46.019Z,15.97
2022-10-07T16:02:21.710Z,16.03
2022-10-07T16:04:54.999Z,16.05
2022-10-07T16:07:28.370Z,15.85
2022-10-07T16:10:01.182Z,15.93
2022-10-07T16:12:34.665Z,15.97
2022-10-07T16:15:09.279Z,16.06
2022-10-07T16:17:43.428Z,16.06
2022-10-07T16:20:18.520Z,16.04
2022-10-07T16:22:53.909Z,16.04
2022-10-07T16:25:26.886Z,15.98
2022-10-07T16:28:17.712Z,15.99
2022-10-07T16:30:52.620Z,15.95
2022-10-07T16:33:27.690Z,15.69
2022-10-07T16:36:01.390Z,15.48
2022-10-07T16:38:34.967Z,15.52
2022-10-07T16:41:08.687Z,15.61
2022-10-07T16:43:42.484Z,15.47
2022-10-07T16:46:18.795Z,15.45
2022-10-07T16:48:53.488Z,15.37
2022-10-07T16:51:29.101Z,15.30
2022-10-07T16:54:04.459Z,15.07
2022-10-07T16:56:38.215Z,14.78
2022-10-07T16:59:13.087Z,15.01
2022-10-07T17:01:46.853Z,14.86
2022-10-07T17:04:21.566Z,14.79
2022-10-07T17:06:54.642Z,14.89
2022-10-07T17:09:28.261Z,14.67
2022-10-07T17:12:02.017Z,14.74
2022-10-07T17:14:37.328Z,14.67
2022-10-07T17:17:11.390Z,14.61
2022-10-07T17:19:46.345Z,14.55
2022-10-07T17:22:20.002Z,14.46
2022-10-07T17:24:53.294Z,14.34
2022-10-07T17:27:27.108Z,14.34
2022-10-07T17:29:59.929Z,14.22
2022-10-07T17:32:33.589Z,14.23
2022-10-07T17:35:09.086Z,14.35
2022-10-07T17:37:42.815Z,14.04
2022-10-07T17:40:16.790Z,14.08
2022-10-07T17:42:49.584Z,14.06
2022-10-07T17:45:22.462Z,14.17
2022-10-07T17:47:57.923Z,14.15
2022-10-07T17:50:32.550Z,14.16
2022-10-07T17:53:07.575Z,14.04
2022-10-07T17:55:40.953Z,14.01
2022-10-07T17:58:14.550Z,14.00
2022-10-07T18:00:48.741Z,13.97
2022-10-07T18:03:21.646Z,13.91
2022-10-07T18:05:57.009Z,13.87
2022-10-07T18:08:30.584Z,13.80
2022-10-07T18:11:04.902Z,13.69
2022-10-07T18:13:55.633Z,13.66
2022-10-07T18:16:32.642Z,13.67
2022-10-07T18:19:06.448Z,13.72
2022-10-07T18:21:41.573Z,13.83
2022-10-07T18:24:15.273Z,13.68
2022-10-07T18:26:48.877Z,13.70
2022-10-07T18:29:22.212Z,13.66
2022-10-07T18:31:56.440Z,13.66
2022-10-07T18:34:29.448Z,13.54
2022-10-07T18:37:03.708Z,13.69
2022-10-07T18:39:37.453Z,13.60
2022-10-07T18:42:11.112Z,13.46
2022-10-07T18:44:43.958Z,13.44
2022-10-07T18:47:17.360Z,13.46
2022-10-07T18:49:51.753Z,13.41
2022-10-07T18:52:26.964Z,13.35
2022-10-07T18:54:59.764Z,13.34
2022-10-07T18:57:33.020Z,13.41
2022-10-07T19:00:07.864Z,13.49
2022-10-07T19:02:45.114Z,13.49
2022-10-07T19:05:19.150Z,13.51
2022-10-07T19:07:54.325Z,13.58
2022-10-07T19:10:27.200Z,13.46
2022-10-07T19:13:20.641Z,13.51
2022-10-07T19:15:53.719Z,13.54
2022-10-07T19:18:27.779Z,13.52
2022-10-07T19:21:03.843Z,13.55
2022-10-07T19:23:39.031Z,13.66
2022-10-07T19:26:14.212Z,13.64
2022-10-07T19:28:48.968Z,13.67
2022-10-07T19:31:24.546Z,13.70
2022-10-07T19:34:02.556Z,13.74
2022-10-07T19:36:38.188Z,13.70
2022-10-07T19:39:13.157Z,13.65
2022-10-07T19:41:47.752Z,13.43
2022-10-07T19:44:21.331Z,13.35
2022-10-07T19:46:55.689Z,13.41
2022-10-07T19:49:28.692Z,13.50
2022-10-07T19:52:02.293Z,13.45
2022-10-07T19:54:39.745Z,13.39
2022-10-07T19:57:13.394Z,13.34
2022-10-07T19:59:47.045Z,13.26
2022-10-07T20:02:20.752Z,13.24
2022-10-07T20:04:54.014Z,13.38
2022-10-07T20:07:27.004Z,13.42
2022-10-07T20:10:01.186Z,13.34
2022-10-07T20:12:34.886Z,13.35
2022-10-07T20:15:10.375Z,13.40
2022-10-07T20:17:45.679Z,13.55
2022-10-07T20:20:21.208Z,13.53
2022-10-07T20:22:56.045Z,13.42
2022-10-07T20:25:30.185Z,13.50
2022-10-07T20:28:03.873Z,13.34
2022-10-07T20:30:37.450Z,13.44
2022-10-07T20:33:10.256Z,13.27
2022-10-07T20:35:43.800Z,13.32
2022-10-07T20:38:17.462Z,13.32
2022-10-07T20:41:12.322Z,13.35
2022-10-07T20:43:46.145Z,13.36
2022-10-07T20:46:19.630Z,13.32
2022-10-07T20:48:54.999Z,13.34
2022-10-07T20:51:28.553Z,13.39
2022-10-07T20:54:03.697Z,13.26
2022-10-07T20:56:38.732Z,13.01
2022-10-07T20:59:12.819Z,13.29
2022-10-07T21:01:46.714Z,13.25
2022-10-07T21:04:20.662Z,13.43
2022-10-07T21:06:54.665Z,13.53
2022-10-07T21:09:27.945Z,13.37
2022-10-07T21:12:02.959Z,13.39
2022-10-07T21:14:36.960Z,13.38
2022-10-07T21:17:10.492Z,13.41
2022-10-07T21:19:44.100Z,13.38
2022-10-07T21:22:17.692Z,13.39
2022-10-07T21:24:51.151Z,13.24
